Time;durP1;ratioP1;P1;durP2;ratioP2;P2;SDS_P1;SDS_P2;PMS_P1;PMS_P2;Temp;Humidity;BMP_temperature;BMP_pressure;BME280_temperature;BME280_humidity;BME280_pressure;Samples;Min_cycle;Max_cycle;Signal;HPM_P1;HPM_P2
2024/04/17 00:01:32;;;;;;;1.85;1.15;;;9.30;79.60;;;;;;5428748;26;20250;-70
2024/04/17 00:04:01;;;;;;;1.13;1.13;;;9.30;79.60;;;;;;5396665;26;20255;-70
2024/04/17 00:06:27;;;;;;;1.10;1.10;;;9.30;79.90;;;;;;5428738;26;20302;-70
2024/04/17 00:08:56;;;;;;;1.40;1.40;;;9.30;80.60;;;;;;5374038;26;20259;-70
2024/04/17 00:11:22;;;;;;;1.35;1.30;;;9.20;81.20;;;;;;5442843;26;20286;-70
2024/04/17 00:13:53;;;;;;;1.40;1.30;;;9.10;81.30;;;;;;5405520;26;20664;-70
2024/04/17 00:16:19;;;;;;;1.25;1.20;;;9.10;81.60;;;;;;5434575;26;20280;-71
2024/04/17 00:18:48;;;;;;;1.10;1.10;;;9.10;81.60;;;;;;5405710;26;20611;-71
2024/04/17 00:21:14;;;;;;;1.20;1.20;;;9.10;81.40;;;;;;5424662;26;20269;-70
2024/04/17 00:23:42;;;;;;;1.15;1.15;;;9.00;81.30;;;;;;5395412;26;20259;-70
2024/04/17 00:26:08;;;;;;;1.10;1.10;;;9.00;81.80;;;;;;5422607;26;20255;-70
2024/04/17 00:28:37;;;;;;;1.10;1.10;;;9.00;81.80;;;;;;5423014;26;20255;-70
2024/04/17 00:31:06;;;;;;;1.20;1.20;;;9.00;81.50;;;;;;5424841;26;20392;-70
2024/04/17 00:33:35;;;;;;;1.10;1.10;;;9.00;81.80;;;;;;5452502;26;20371;-70
2024/04/17 00:36:01;;;;;;;0.98;0.98;;;8.90;82.50;;;;;;5419155;26;20240;-70
2024/04/17 00:38:29;;;;;;;1.30;1.30;;;8.90;83.10;;;;;;5423288;26;20921;-70
2024/04/17 00:40:56;;;;;;;1.40;1.33;;;8.90;83.10;;;;;;5420361;26;20290;-70
2024/04/17 00:43:27;;;;;;;1.33;1.27;;;8.80;83.40;;;;;;5421865;26;20677;-71
2024/04/17 00:45:53;;;;;;;1.55;1.45;;;8.80;83.60;;;;;;5393739;26;21134;-70
2024/04/17 00:48:25;;;;;;;1.30;1.30;;;8.70;84.30;;;;;;5419510;26;20255;-70
2024/04/17 00:50:52;;;;;;;1.38;1.30;;;8.70;84.40;;;;;;5427654;26;20237;-70
2024/04/17 00:53:25;;;;;;;1.67;1.40;;;8.60;84.30;;;;;;5423560;26;20308;-70
2024/04/17 00:55:51;;;;;;;1.25;1.15;;;8.60;84.70;;;;;;5420595;26;20259;-71
2024/04/17 00:58:21;;;;;;;1.30;1.30;;;8.60;85.40;;;;;;5400310;26;20693;-70
2024/04/17 01:00:47;;;;;;;1.30;1.30;;;8.50;86.80;;;;;;5424983;26;20259;-70
2024/04/17 01:03:16;;;;;;;1.33;1.33;;;8.50;87.10;;;;;;5427721;26;20372;-70
2024/04/17 01:05:45;;;;;;;1.20;1.20;;;8.50;87.20;;;;;;5426591;26;20237;-70
2024/04/17 01:08:13;;;;;;;1.42;1.33;;;8.50;87.00;;;;;;5417758;26;20252;-70
2024/04/17 01:10:39;;;;;;;1.20;1.20;;;8.50;87.40;;;;;;5431196;26;20255;-70
2024/04/17 01:13:08;;;;;;;1.33;1.33;;;8.50;87.80;;;;;;5370342;26;20802;-70
2024/04/17 01:15:35;;;;;;;1.20;1.20;;;8.50;87.90;;;;;;5424307;26;20282;-70
2024/04/17 01:18:06;;;;;;;0.90;0.90;;;8.50;87.90;;;;;;5427162;26;20258;-70
2024/04/17 01:20:32;;;;;;;1.17;1.17;;;8.50;87.70;;;;;;5416867;26;20947;-70
2024/04/17 01:23:04;;;;;;;1.20;1.20;;;8.40;87.90;;;;;;5426448;26;20595;-70
2024/04/17 01:25:32;;;;;;;1.20;1.20;;;8.20;88.60;;;;;;5399886;26;20820;-70
2024/04/17 01:28:01;;;;;;;1.33;1.33;;;8.10;89.20;;;;;;5426722;26;20263;-71
2024/04/17 01:30:27;;;;;;;1.20;1.20;;;8.10;89.90;;;;;;5416951;26;20641;-71
2024/04/17 01:32:56;;;;;;;1.35;1.30;;;8.10;91.10;;;;;;5423727;26;20285;-71
2024/04/17 01:35:22;;;;;;;1.60;1.50;;;8.10;91.20;;;;;;5394489;26;20362;-71
2024/04/17 01:37:50;;;;;;;2.22;1.60;;;8.10;91.40;;;;;;5425803;26;20255;-71
2024/04/17 01:40:17;;;;;;;1.55;1.45;;;8.10;92.70;;;;;;5426662;26;20743;-71
2024/04/17 01:42:48;;;;;;;1.95;1.52;;;8.00;93.30;;;;;;5387919;26;20256;-71
2024/04/17 01:45:14;;;;;;;1.60;1.50;;;7.90;94.50;;;;;;5422926;26;20278;-70
2024/04/17 01:47:43;;;;;;;1.50;1.50;;;7.90;94.70;;;;;;5424143;26;20367;-71
2024/04/17 01:50:09;;;;;;;1.58;1.58;;;7.80;95.30;;;;;;5373365;26;20648;-70
2024/04/17 01:52:40;;;;;;;1.50;1.42;;;7.80;96.10;;;;;;5396532;26;20260;-70
2024/04/17 01:55:06;;;;;;;1.70;1.60;;;7.80;97.00;;;;;;5397713;26;20354;-71
2024/04/17 01:57:36;;;;;;;1.33;1.33;;;7.80;98.20;;;;;;5393333;26;20291;-70
2024/04/17 02:00:07;;;;;;;1.52;1.52;;;7.80;98.60;;;;;;5369523;26;20399;-70
2024/04/17 02:02:36;;;;;;;1.38;1.27;;;7.80;99.50;;;;;;5392756;26;20770;-71
2024/04/17 02:05:02;;;;;;;1.55;1.52;;;7.80;99.90;;;;;;5427927;26;20256;-71
2024/04/17 02:07:31;;;;;;;1.80;1.70;;;7.70;99.90;;;;;;5422285;26;20267;-71
2024/04/17 02:09:57;;;;;;;1.60;1.50;;;7.70;99.90;;;;;;5426063;26;20255;-71
2024/04/17 02:12:25;;;;;;;1.52;1.52;;;7.60;99.90;;;;;;5430265;26;20287;-70
2024/04/17 02:14:51;;;;;;;1.55;1.45;;;7.60;99.90;;;;;;5429360;26;20247;-70
2024/04/17 02:17:22;;;;;;;1.58;1.48;;;7.50;99.90;;;;;;5429452;26;20740;-70
2024/04/17 02:19:48;;;;;;;1.80;1.70;;;7.50;99.90;;;;;;5425897;26;20293;-71
2024/04/17 02:22:17;;;;;;;1.63;1.52;;;7.40;99.90;;;;;;5425818;26;21350;-70
2024/04/17 02:24:43;;;;;;;1.77;1.67;;;7.30;99.90;;;;;;5436243;26;20255;-70
2024/04/17 02:27:11;;;;;;;1.77;1.67;;;7.30;99.90;;;;;;5431696;26;20259;-70
2024/04/17 02:29:38;;;;;;;1.52;1.52;;;7.40;99.90;;;;;;5430459;26;20286;-70
2024/04/17 02:32:08;;;;;;;1.85;1.75;;;7.40;99.90;;;;;;5403746;26;20251;-70
2024/04/17 02:34:40;;;;;;;2.00;1.90;;;7.30;99.90;;;;;;5429360;26;20298;-70
2024/04/17 02:37:07;;;;;;;1.90;1.80;;;7.30;99.90;;;;;;5398319;26;20343;-70
2024/04/17 02:39:36;;;;;;;1.52;1.52;;;7.30;99.90;;;;;;5402506;26;20300;-70
2024/04/17 02:42:02;;;;;;;1.55;1.55;;;7.30;99.90;;;;;;5428618;26;20248;-70
2024/04/17 02:44:31;;;;;;;1.80;1.70;;;7.40;99.90;;;;;;5424069;26;20238;-70
2024/04/17 02:46:57;;;;;;;1.98;1.88;;;7.30;99.90;;;;;;5432575;26;20616;-70
2024/04/17 02:49:26;;;;;;;1.80;1.70;;;7.20;99.90;;;;;;5411345;26;20251;-71
2024/04/17 02:51:54;;;;;;;1.85;1.75;;;7.10;99.90;;;;;;5434501;26;20290;-70
2024/04/17 02:54:23;;;;;;;1.80;1.70;;;7.10;99.90;;;;;;5427008;26;20299;-70
2024/04/17 02:56:49;;;;;;;2.03;1.92;;;7.20;99.90;;;;;;5412433;26;20327;-70
2024/04/17 02:59:17;;;;;;;1.80;1.70;;;7.20;99.90;;;;;;5401356;26;20278;-71
2024/04/17 03:01:43;;;;;;;1.73;1.73;;;7.10;99.90;;;;;;5422655;26;20255;-71
2024/04/17 03:04:12;;;;;;;1.80;1.70;;;7.10;99.90;;;;;;5426296;26;20596;-70
2024/04/17 03:06:38;;;;;;;1.80;1.70;;;7.00;99.90;;;;;;5430460;26;20251;-70
2024/04/17 03:09:10;;;;;;;1.52;1.52;;;7.00;99.90;;;;;;5424774;26;20255;-70
2024/04/17 03:11:36;;;;;;;1.50;1.50;;;7.00;99.90;;;;;;5435430;26;20252;-70
2024/04/17 03:14:04;;;;;;;1.75;1.65;;;7.10;99.90;;;;;;5425850;26;20285;-71
2024/04/17 03:16:31;;;;;;;1.85;1.75;;;7.10;99.90;;;;;;5402324;26;20330;-71
2024/04/17 03:18:59;;;;;;;1.50;1.50;;;7.10;99.90;;;;;;5428565;26;20356;-70
2024/04/17 03:21:26;;;;;;;1.50;1.40;;;7.10;99.90;;;;;;5428935;26;20598;-70
2024/04/17 03:23:55;;;;;;;1.50;1.50;;;7.20;99.90;;;;;;5425388;26;20665;-70
2024/04/17 03:26:24;;;;;;;1.77;1.67;;;7.20;99.90;;;;;;5404930;26;21447;-70
2024/04/17 03:28:53;;;;;;;1.75;1.65;;;7.20;99.90;;;;;;5398560;26;20806;-70
2024/04/17 03:31:19;;;;;;;1.60;1.60;;;7.10;99.90;;;;;;5429447;26;20598;-70
2024/04/17 03:33:48;;;;;;;1.67;1.40;;;7.10;99.90;;;;;;5425144;26;20269;-70
2024/04/17 03:36:14;;;;;;;1.52;1.52;;;7.10;99.90;;;;;;5410237;26;20226;-70
2024/04/17 03:38:43;;;;;;;1.50;1.50;;;7.00;99.90;;;;;;5354522;26;20286;-70
2024/04/17 03:41:12;;;;;;;1.60;1.50;;;6.90;99.90;;;;;;5406236;26;21147;-70
2024/04/17 03:43:43;;;;;;;1.80;1.70;;;6.90;99.90;;;;;;5419423;26;20255;-71
2024/04/17 03:46:12;;;;;;;1.90;1.80;;;6.80;99.90;;;;;;5426439;26;20310;-71
2024/04/17 03:48:40;;;;;;;1.80;1.70;;;6.80;99.90;;;;;;5403110;26;20310;-71
2024/04/17 03:51:06;;;;;;;2.00;1.90;;;6.80;99.90;;;;;;5428827;26;20231;-71
2024/04/17 03:53:35;;;;;;;1.70;1.60;;;6.80;99.90;;;;;;5428491;26;20637;-71
2024/04/17 03:56:04;;;;;;;1.90;1.80;;;6.80;99.90;;;;;;5390530;26;20262;-71
2024/04/17 03:58:30;;;;;;;1.60;1.60;;;6.90;99.90;;;;;;5429429;26;20290;-71
2024/04/17 04:01:01;;;;;;;1.65;1.60;;;6.90;99.90;;;;;;5425735;26;20673;-70
2024/04/17 04:03:27;;;;;;;1.75;1.67;;;6.80;99.90;;;;;;5403286;26;20793;-71
2024/04/17 04:05:56;;;;;;;1.80;1.70;;;6.80;99.90;;;;;;5431308;26;20244;-71
2024/04/17 04:08:22;;;;;;;1.98;1.88;;;6.70;99.90;;;;;;5424860;26;20260;-71
2024/04/17 04:10:50;;;;;;;2.10;2.00;;;6.60;99.90;;;;;;5403096;26;20339;-71
2024/04/17 04:13:16;;;;;;;2.17;2.08;;;6.60;99.90;;;;;;5430241;26;20285;-71
2024/04/17 04:15:54;;;;;;;2.08;1.80;;;6.60;99.90;;;;;;5425791;26;20291;-71
2024/04/17 04:18:23;;;;;;;2.03;1.92;;;6.50;99.90;;;;;;5398250;26;20274;-70
2024/04/17 04:20:52;;;;;;;2.60;2.40;;;6.50;99.90;;;;;;5432266;26;20249;-71
2024/04/17 04:23:18;;;;;;;1.90;1.80;;;6.40;99.90;;;;;;5402852;26;20796;-71
2024/04/17 04:25:48;;;;;;;1.90;1.80;;;6.40;99.90;;;;;;5401964;26;20271;-70
2024/04/17 04:28:14;;;;;;;2.22;2.13;;;6.40;99.90;;;;;;5377760;26;21485;-70
2024/04/17 04:30:43;;;;;;;2.83;2.70;;;6.40;99.90;;;;;;5399261;26;20856;-70
2024/04/17 04:33:09;;;;;;;2.20;2.10;;;6.30;99.90;;;;;;5420719;26;20253;-70
2024/04/17 04:35:40;;;;;;;2.15;2.05;;;6.30;99.90;;;;;;5402716;26;20299;-70
2024/04/17 04:38:06;;;;;;;2.10;2.00;;;6.20;99.90;;;;;;5395588;26;20690;-70
2024/04/17 04:40:35;;;;;;;3.33;3.03;;;6.20;99.90;;;;;;5426800;26;20927;-70
2024/04/17 04:43:01;;;;;;;2.40;2.30;;;6.20;99.90;;;;;;5431881;26;20263;-70
2024/04/17 04:45:29;;;;;;;2.42;2.22;;;6.30;99.90;;;;;;5437693;26;20599;-70
2024/04/17 04:47:57;;;;;;;2.53;2.30;;;6.30;99.90;;;;;;5387275;26;20255;-70
2024/04/17 04:50:25;;;;;;;2.15;2.05;;;6.30;99.90;;;;;;5430008;26;20308;-71
2024/04/17 04:52:54;;;;;;;2.20;2.10;;;6.40;99.90;;;;;;5427408;26;20287;-71
2024/04/17 04:55:24;;;;;;;2.50;2.40;;;6.40;99.90;;;;;;5433978;26;20992;-71
2024/04/17 04:57:50;;;;;;;2.20;2.10;;;6.50;99.90;;;;;;5422861;26;20259;-71
2024/04/17 05:00:18;;;;;;;2.42;2.30;;;6.50;99.90;;;;;;5423748;26;20311;-71
2024/04/17 05:02:44;;;;;;;2.38;2.17;;;6.60;99.90;;;;;;5424083;26;20306;-71
2024/04/17 05:05:14;;;;;;;3.20;2.58;;;6.50;99.90;;;;;;5429767;26;20759;-71
2024/04/17 05:07:40;;;;;;;2.97;2.67;;;6.60;99.90;;;;;;5371241;26;20263;-71
2024/04/17 05:10:12;;;;;;;2.70;2.60;;;6.80;99.90;;;;;;5426827;26;20286;-70
2024/04/17 05:12:38;;;;;;;2.20;2.10;;;7.30;99.90;;;;;;5395764;26;20330;-71
2024/04/17 05:15:08;;;;;;;2.35;2.15;;;7.80;99.90;;;;;;5401837;26;20248;-71
2024/04/17 05:17:34;;;;;;;2.42;2.30;;;8.30;99.90;;;;;;5389413;26;20388;-71
2024/04/17 05:20:03;;;;;;;2.72;2.53;;;8.80;99.90;;;;;;5394073;26;20326;-70
2024/04/17 05:22:29;;;;;;;2.70;2.50;;;9.10;99.90;;;;;;5375575;26;21497;-72
2024/04/17 05:24:59;;;;;;;2.75;2.50;;;9.30;99.90;;;;;;5397538;26;20247;-70
2024/04/17 05:27:28;;;;;;;3.00;2.50;;;9.30;99.90;;;;;;5420592;26;20286;-71
2024/04/17 05:29:56;;;;;;;2.83;2.70;;;9.30;99.90;;;;;;5429658;26;20236;-71
2024/04/17 05:32:22;;;;;;;2.58;2.38;;;9.10;99.90;;;;;;5424735;26;20251;-71
2024/04/17 05:34:51;;;;;;;5.03;2.42;;;9.20;99.90;;;;;;5422194;26;20305;-71
2024/04/17 05:37:17;;;;;;;2.47;2.35;;;9.30;99.90;;;;;;5401074;26;20262;-71
2024/04/17 05:39:45;;;;;;;2.83;2.63;;;9.30;99.90;;;;;;5420636;26;20318;-71
2024/04/17 05:42:11;;;;;;;2.53;2.33;;;9.40;99.90;;;;;;5428949;26;20247;-71
2024/04/17 05:44:43;;;;;;;2.38;2.17;;;9.40;99.90;;;;;;5426295;26;20598;-71
2024/04/17 05:47:09;;;;;;;3.70;2.40;;;9.40;99.90;;;;;;5423027;26;20334;-71
2024/04/17 05:49:38;;;;;;;2.25;2.13;;;9.50;99.90;;;;;;5395915;26;20264;-71
2024/04/17 05:52:05;;;;;;;1.92;1.83;;;9.60;99.90;;;;;;5398528;26;20740;-71
2024/04/17 05:54:34;;;;;;;3.70;2.25;;;9.60;99.90;;;;;;5414409;26;20255;-71
2024/04/17 05:57:00;;;;;;;2.58;2.38;;;9.70;99.90;;;;;;5400230;26;20449;-72
2024/04/17 05:59:29;;;;;;;2.80;2.15;;;9.70;99.90;;;;;;5370701;26;20342;-72
2024/04/17 06:01:57;;;;;;;2.50;2.30;;;9.80;99.90;;;;;;5428840;26;20817;-71
2024/04/17 06:04:26;;;;;;;2.85;2.17;;;9.70;99.90;;;;;;5419245;26;20258;-71
2024/04/17 06:06:52;;;;;;;2.58;2.35;;;9.80;99.90;;;;;;5424166;26;20255;-70
2024/04/17 06:09:21;;;;;;;2.00;1.90;;;9.80;99.90;;;;;;5419955;26;20286;-70
2024/04/17 06:11:47;;;;;;;2.10;2.00;;;9.80;99.90;;;;;;5430598;26;20718;-70
2024/04/17 06:14:15;;;;;;;2.40;2.20;;;9.80;99.90;;;;;;5425048;26;20253;-71
2024/04/17 06:16:43;;;;;;;3.70;2.05;;;9.90;99.90;;;;;;5420976;26;20608;-71
2024/04/17 06:19:14;;;;;;;2.17;2.00;;;10.00;99.90;;;;;;5426477;26;20319;-71
2024/04/17 06:21:40;;;;;;;2.67;2.20;;;10.10;99.90;;;;;;5370166;26;20359;-73
2024/04/17 06:24:09;;;;;;;2.33;2.10;;;10.20;99.90;;;;;;5414048;26;20251;-72
2024/04/17 06:26:35;;;;;;;1.90;1.80;;;10.30;99.90;;;;;;5426226;26;20247;-70
2024/04/17 06:29:04;;;;;;;2.22;2.00;;;10.40;99.90;;;;;;5398426;26;20255;-70
2024/04/17 06:31:30;;;;;;;3.20;2.15;;;10.70;99.90;;;;;;5397472;26;20312;-72
2024/04/17 06:33:58;;;;;;;2.72;2.20;;;10.80;99.90;;;;;;5425480;26;20251;-72
2024/04/17 06:36:27;;;;;;;1.95;1.85;;;10.80;99.90;;;;;;5421238;26;20643;-72
2024/04/17 06:38:56;;;;;;;1.77;1.67;;;11.00;99.90;;;;;;5424970;26;20298;-72
2024/04/17 06:41:22;;;;;;;2.92;2.00;;;11.30;99.90;;;;;;5402560;26;21088;-72
2024/04/17 06:43:50;;;;;;;1.88;1.77;;;11.50;99.90;;;;;;5402022;26;20270;-70
2024/04/17 06:46:16;;;;;;;1.98;1.80;;;11.50;99.90;;;;;;5425600;26;20281;-72
2024/04/17 06:48:45;;;;;;;1.92;1.83;;;11.80;99.90;;;;;;5428751;26;20254;-71
2024/04/17 06:51:11;;;;;;;3.03;1.73;;;12.00;99.90;;;;;;5421137;26;20279;-71
2024/04/17 06:53:42;;;;;;;1.77;1.67;;;12.20;99.90;;;;;;5398255;26;20396;-71
2024/04/17 06:56:09;;;;;;;1.90;1.80;;;12.20;99.90;;;;;;5394689;26;20327;-70
2024/04/17 06:58:38;;;;;;;2.00;1.90;;;12.40;99.90;;;;;;5422972;26;20785;-71
2024/04/17 07:01:04;;;;;;;3.65;1.85;;;12.70;99.90;;;;;;5423478;26;20255;-70
2024/04/17 07:03:33;;;;;;;2.00;1.83;;;12.70;99.90;;;;;;5427284;26;20297;-71
2024/04/17 07:06:02;;;;;;;3.53;2.03;;;12.70;99.90;;;;;;5426211;26;20732;-71
2024/04/17 07:08:31;;;;;;;1.73;1.63;;;12.70;99.90;;;;;;5415350;26;21027;-70
2024/04/17 07:11:01;;;;;;;2.60;2.08;;;12.70;99.90;;;;;;5425398;26;20273;-70
2024/04/17 07:13:30;;;;;;;2.17;1.88;;;12.60;99.90;;;;;;5423320;26;20255;-71
2024/04/17 07:15:57;;;;;;;2.58;1.85;;;12.50;99.90;;;;;;5418601;26;20301;-72
2024/04/17 07:18:27;;;;;;;3.13;1.85;;;12.70;99.90;;;;;;5421151;26;20251;-72
2024/04/17 07:20:53;;;;;;;2.08;1.83;;;12.80;99.90;;;;;;5394991;26;20306;-72
2024/04/17 07:23:22;;;;;;;4.20;1.80;;;12.90;99.90;;;;;;5391757;26;20627;-73
2024/04/17 07:25:49;;;;;;;2.10;1.90;;;12.90;99.90;;;;;;5417961;26;20260;-73
2024/04/17 07:28:20;;;;;;;2.45;1.90;;;12.90;99.90;;;;;;5399484;26;20310;-73
2024/04/17 07:30:46;;;;;;;2.45;1.55;;;13.10;99.90;;;;;;5421587;26;20643;-72
2024/04/17 07:33:15;;;;;;;2.15;1.95;;;13.20;99.90;;;;;;5418817;26;20295;-72
2024/04/17 07:35:41;;;;;;;2.35;2.10;;;13.30;99.90;;;;;;5423344;26;20243;-72
2024/04/17 07:38:09;;;;;;;1.95;1.75;;;13.10;99.90;;;;;;5418787;26;20263;-72
2024/04/17 07:40:36;;;;;;;1.67;1.58;;;12.90;99.90;;;;;;5424789;26;20248;-72
2024/04/17 07:43:06;;;;;;;3.10;1.70;;;13.20;99.90;;;;;;5393391;26;20294;-72
2024/04/17 07:45:35;;;;;;;2.55;1.80;;;13.30;99.90;;;;;;5397575;26;20727;-73
2024/04/17 07:48:06;;;;;;;2.20;2.03;;;13.30;99.90;;;;;;5426380;26;20335;-72
2024/04/17 07:50:32;;;;;;;6.32;1.60;;;13.30;99.90;;;;;;5428209;26;20243;-72
2024/04/17 07:53:00;;;;;;;3.47;1.98;;;13.30;99.90;;;;;;5426716;26;20684;-73
2024/04/17 07:55:27;;;;;;;2.00;1.77;;;13.40;99.90;;;;;;5392709;26;20308;-72
2024/04/17 07:57:55;;;;;;;1.98;1.60;;;13.40;99.90;;;;;;5389557;26;20753;-72
2024/04/17 08:00:21;;;;;;;1.70;1.60;;;13.60;99.90;;;;;;5433343;26;20600;-73
2024/04/17 08:02:53;;;;;;;1.75;1.65;;;13.60;99.90;;;;;;5446677;26;20289;-73
2024/04/17 08:05:18;;;;;;;3.42;2.08;;;13.60;99.90;;;;;;5428455;26;20264;-72
2024/04/17 08:07:48;;;;;;;3.22;1.90;;;13.60;99.90;;;;;;5392235;26;20297;-74
2024/04/17 08:10:15;;;;;;;7.30;2.00;;;13.50;99.90;;;;;;5424232;26;20807;-73
2024/04/17 08:12:44;;;;;;;2.75;1.90;;;13.40;99.90;;;;;;5426163;26;20333;-72
2024/04/17 08:15:12;;;;;;;1.60;1.50;;;13.20;99.90;;;;;;5425709;26;20235;-72
2024/04/17 08:17:42;;;;;;;1.83;1.55;;;13.30;99.90;;;;;;5400537;26;20293;-72
2024/04/17 08:20:11;;;;;;;1.60;1.50;;;13.30;99.90;;;;;;5428515;26;20301;-73
2024/04/17 08:22:39;;;;;;;3.35;1.58;;;13.30;99.90;;;;;;5427147;26;20262;-72
2024/04/17 08:25:06;;;;;;;4.57;1.52;;;13.40;99.90;;;;;;5415441;26;20252;-72
2024/04/17 08:27:35;;;;;;;1.92;1.40;;;13.70;99.90;;;;;;5391855;26;20761;-73
2024/04/17 08:30:01;;;;;;;1.50;1.40;;;13.90;99.90;;;;;;5417795;26;21106;-73
2024/04/17 08:32:30;;;;;;;1.52;1.42;;;14.10;99.90;;;;;;5427729;26;20267;-72
2024/04/17 08:34:56;;;;;;;1.38;1.35;;;14.30;99.90;;;;;;5401207;26;20278;-72
2024/04/17 08:37:28;;;;;;;1.52;1.42;;;14.40;99.90;;;;;;5417770;26;20383;-72
2024/04/17 08:39:54;;;;;;;2.00;1.80;;;14.50;99.90;;;;;;5418140;26;20633;-72
2024/04/17 08:42:25;;;;;;;1.70;1.60;;;14.30;99.90;;;;;;5379744;26;20776;-73
2024/04/17 08:44:52;;;;;;;1.45;1.35;;;14.40;99.90;;;;;;5412508;26;20316;-72
2024/04/17 08:47:23;;;;;;;1.52;1.42;;;14.50;99.90;;;;;;5379660;26;20747;-73
2024/04/17 08:49:51;;;;;;;1.55;1.45;;;14.40;99.90;;;;;;5410962;26;20248;-72
2024/04/17 08:52:22;;;;;;;2.42;1.50;;;14.30;99.90;;;;;;5414115;26;20359;-72
2024/04/17 08:54:52;;;;;;;2.13;1.52;;;14.10;99.90;;;;;;5411089;26;20244;-71
2024/04/17 08:57:22;;;;;;;2.70;1.40;;;14.10;99.90;;;;;;5409477;26;20272;-72
2024/04/17 08:59:48;;;;;;;1.33;1.20;;;14.30;99.90;;;;;;5408550;26;20249;-71
2024/04/17 09:02:17;;;;;;;1.73;1.40;;;14.60;99.90;;;;;;5345428;26;20251;-72
2024/04/17 09:04:44;;;;;;;1.60;1.50;;;14.80;99.90;;;;;;5412696;26;20255;-74
2024/04/17 09:07:14;;;;;;;2.25;1.30;;;15.00;99.90;;;;;;5412246;26;20275;-74
2024/04/17 09:09:41;;;;;;;1.20;1.10;;;15.10;99.90;;;;;;5380227;26;20645;-73
2024/04/17 09:12:14;;;;;;;1.42;1.33;;;15.30;99.90;;;;;;5394171;26;20235;-72
2024/04/17 09:14:40;;;;;;;1.45;1.27;;;15.40;99.90;;;;;;5388422;26;20243;-72
2024/04/17 09:17:10;;;;;;;1.50;1.40;;;15.60;99.90;;;;;;5423597;26;20306;-73
2024/04/17 09:19:36;;;;;;;2.50;1.23;;;15.50;99.90;;;;;;5422336;26;20256;-72
2024/04/17 09:22:05;;;;;;;1.27;1.17;;;15.40;99.90;;;;;;5416603;26;20295;-73
2024/04/17 09:24:39;;;;;;;2.15;1.02;;;15.30;99.90;;;;;;5364826;26;20315;-72
2024/04/17 09:27:08;;;;;;;2.03;1.35;;;15.60;99.90;;;;;;5398083;26;20251;-74
2024/04/17 09:29:36;;;;;;;1.10;1.05;;;15.70;99.90;;;;;;5431936;26;20287;-72
2024/04/17 09:32:06;;;;;;;1.08;1.08;;;15.50;99.90;;;;;;5417299;26;20776;-73
2024/04/17 09:34:32;;;;;;;1.45;1.20;;;15.50;99.90;;;;;;5396863;26;20252;-72
2024/04/17 09:37:01;;;;;;;1.30;1.20;;;15.30;99.90;;;;;;5414005;26;20250;-74
2024/04/17 09:39:27;;;;;;;1.33;1.00;;;15.20;99.90;;;;;;5413821;26;20824;-73
2024/04/17 09:41:56;;;;;;;1.33;0.90;;;15.20;99.90;;;;;;5394785;26;20733;-73
2024/04/17 09:44:25;;;;;;;2.90;1.20;;;15.30;99.90;;;;;;5425109;26;20270;-71
2024/04/17 09:46:59;;;;;;;1.10;1.00;;;15.40;99.90;;;;;;5426264;26;20357;-71
2024/04/17 09:49:28;;;;;;;1.15;1.05;;;15.40;99.90;;;;;;5424485;26;20316;-71
2024/04/17 09:51:58;;;;;;;1.02;0.90;;;15.30;99.90;;;;;;5433400;26;20303;-71
2024/04/17 09:54:27;;;;;;;1.10;1.10;;;15.20;99.90;;;;;;5405249;26;20359;-71
2024/04/17 09:56:57;;;;;;;1.05;1.00;;;15.10;99.90;;;;;;5435813;26;20351;-73
2024/04/17 09:59:23;;;;;;;1.30;1.20;;;15.20;99.90;;;;;;5406011;26;20249;-74
2024/04/17 10:01:53;;;;;;;1.10;0.93;;;15.30;99.90;;;;;;5434681;26;20302;-73
2024/04/17 10:04:27;;;;;;;1.52;1.23;;;15.40;99.90;;;;;;5429188;26;20892;-73
2024/04/17 10:06:54;;;;;;;0.90;0.90;;;15.50;99.90;;;;;;5428754;26;20645;-73
2024/04/17 10:09:24;;;;;;;1.23;1.13;;;15.60;99.90;;;;;;5420890;26;20757;-72
2024/04/17 10:11:52;;;;;;;6.22;3.83;;;15.50;99.90;;;;;;5416577;26;20247;-71
2024/04/17 10:14:22;;;;;;;6.13;4.03;;;15.60;99.90;;;;;;5423594;26;20259;-71
2024/04/17 10:16:48;;;;;;;4.40;2.80;;;16.00;99.90;;;;;;5397892;26;20354;-72
2024/04/17 10:19:17;;;;;;;4.53;2.95;;;16.00;99.90;;;;;;5424548;26;20256;-72
2024/04/17 10:21:46;;;;;;;4.18;2.83;;;15.90;99.90;;;;;;5402665;26;20301;-73
2024/04/17 10:24:16;;;;;;;4.82;2.00;;;16.00;99.90;;;;;;5384646;26;20245;-72
2024/04/17 10:26:44;;;;;;;3.63;2.10;;;16.10;99.90;;;;;;5393532;26;20342;-71
2024/04/17 10:29:20;;;;;;;1.80;1.67;;;16.30;99.90;;;;;;5388406;26;20268;-73
2024/04/17 10:31:59;;;;;;;2.17;1.40;;;16.20;99.90;;;;;;5387924;26;20291;-72
2024/04/17 10:34:29;;;;;;;2.08;1.17;;;16.30;99.90;;;;;;5360710;26;20297;-71
2024/04/17 10:37:02;;;;;;;2.92;1.13;;;16.30;99.90;;;;;;5394640;26;20663;-73
2024/04/17 10:39:33;;;;;;;1.65;1.30;;;16.30;99.90;;;;;;5393413;26;20311;-73
2024/04/17 10:42:00;;;;;;;1.25;1.13;;;16.30;99.90;;;;;;5419406;26;20298;-73
2024/04/17 10:44:29;;;;;;;1.25;0.90;;;16.30;99.90;;;;;;5425702;26;20236;-72
2024/04/17 10:47:01;;;;;;;1.00;0.90;;;16.20;99.90;;;;;;5422675;26;21580;-73
2024/04/17 10:49:30;;;;;;;1.25;1.10;;;16.20;99.90;;;;;;5422028;26;20250;-72
2024/04/17 10:51:57;;;;;;;1.40;1.27;;;16.20;99.90;;;;;;5423644;26;20945;-73
2024/04/17 10:54:29;;;;;;;1.00;1.00;;;16.10;99.90;;;;;;5396422;26;20297;-72
2024/04/17 10:56:56;;;;;;;2.42;1.02;;;16.10;99.90;;;;;;5420205;26;20368;-72
2024/04/17 10:59:29;;;;;;;1.75;0.85;;;16.00;99.90;;;;;;5422683;26;20709;-72
2024/04/17 11:01:55;;;;;;;2.00;1.15;;;16.00;99.90;;;;;;5408469;26;20250;-72
2024/04/17 11:04:25;;;;;;;0.80;0.80;;;16.00;99.90;;;;;;5397500;26;20302;-74
2024/04/17 11:06:51;;;;;;;1.33;0.75;;;16.00;99.90;;;;;;5423086;26;20263;-72
2024/04/17 11:09:20;;;;;;;0.80;0.80;;;15.90;99.90;;;;;;5425053;26;20761;-71
2024/04/17 11:11:50;;;;;;;0.95;0.95;;;15.90;99.90;;;;;;5422720;26;20251;-72
2024/04/17 11:14:20;;;;;;;1.10;1.00;;;15.80;99.90;;;;;;5428642;26;20661;-72
2024/04/17 11:16:47;;;;;;;2.78;1.10;;;15.90;99.90;;;;;;5399976;26;20335;-72
2024/04/17 11:19:16;;;;;;;0.73;0.73;;;15.80;99.90;;;;;;5397379;26;20372;-72
2024/04/17 11:21:43;;;;;;;0.90;0.90;;;15.80;99.90;;;;;;5425610;26;20251;-72
2024/04/17 11:24:19;;;;;;;0.95;0.95;;;15.70;99.90;;;;;;5399101;26;20767;-72
2024/04/17 11:26:48;;;;;;;1.80;0.80;;;15.70;99.90;;;;;;5424934;26;20254;-72
2024/04/17 11:29:19;;;;;;;1.38;0.80;;;15.70;99.90;;;;;;5424544;26;20260;-72
2024/04/17 11:31:45;;;;;;;0.60;0.60;;;15.80;99.90;;;;;;5427335;26;20294;-72
2024/04/17 11:34:24;;;;;;;0.80;0.80;;;15.80;97.80;;;;;;5420116;26;20253;-72
2024/04/17 11:36:51;;;;;;;0.68;0.68;;;15.90;98.10;;;;;;5427896;26;20767;-72
2024/04/17 11:39:20;;;;;;;0.80;0.80;;;16.00;98.70;;;;;;5375854;26;21826;-72
2024/04/17 11:41:51;;;;;;;1.33;0.90;;;16.10;98.20;;;;;;5402642;26;20761;-72
2024/04/17 11:44:20;;;;;;;0.80;0.80;;;16.30;99.10;;;;;;5412464;26;20390;-72
2024/04/17 11:46:48;;;;;;;1.10;0.90;;;16.30;99.90;;;;;;5421590;26;20256;-72
2024/04/17 11:49:17;;;;;;;0.88;0.88;;;16.30;99.90;;;;;;5395050;26;20254;-72
2024/04/17 11:51:44;;;;;;;0.88;0.88;;;16.40;99.90;;;;;;5395045;26;20252;-72
2024/04/17 11:54:13;;;;;;;2.47;0.70;;;16.40;99.90;;;;;;5391415;26;20256;-72
2024/04/17 11:56:42;;;;;;;0.80;0.80;;;16.30;99.90;;;;;;5395790;26;20294;-72
2024/04/17 11:59:11;;;;;;;0.80;0.80;;;16.40;99.90;;;;;;5420004;26;20259;-72
2024/04/17 12:01:39;;;;;;;2.45;0.85;;;16.40;99.90;;;;;;5427727;26;20259;-71
2024/04/17 12:04:06;;;;;;;0.60;0.60;;;16.60;99.90;;;;;;5422666;26;20246;-74
2024/04/17 12:06:35;;;;;;;2.47;0.82;;;16.80;99.00;;;;;;5391502;26;20305;-74
2024/04/17 12:09:01;;;;;;;2.95;0.98;;;16.90;98.60;;;;;;5418595;26;20602;-73
2024/04/17 12:11:29;;;;;;;0.70;0.70;;;16.90;98.80;;;;;;5426867;26;20757;-74
2024/04/17 12:13:56;;;;;;;0.65;0.65;;;17.00;98.30;;;;;;5393800;26;20255;-73
2024/04/17 12:16:27;;;;;;;0.90;0.90;;;17.00;96.40;;;;;;5363898;26;20270;-73
2024/04/17 12:18:53;;;;;;;0.68;0.68;;;17.00;95.80;;;;;;5395803;26;20779;-73
2024/04/17 12:21:22;;;;;;;0.70;0.70;;;17.10;95.20;;;;;;5418984;26;20248;-73
2024/04/17 12:23:54;;;;;;;0.90;0.90;;;17.30;95.40;;;;;;5342299;26;20310;-73
2024/04/17 12:29:08;;;;;;;0.70;0.70;;;17.40;95.90;;;;;;5427418;26;20369;-71
2024/04/17 12:31:39;;;;;;;0.80;0.80;;;17.50;92.40;;;;;;5427095;26;20314;-71
2024/04/17 12:34:08;;;;;;;0.68;0.68;;;17.60;92.30;;;;;;5424432;26;20783;-72
2024/04/17 12:36:37;;;;;;;0.70;0.70;;;17.50;90.50;;;;;;5424940;26;20255;-72
2024/04/17 12:39:06;;;;;;;0.70;0.70;;;17.40;90.20;;;;;;5422874;26;20311;-72
2024/04/17 12:41:35;;;;;;;0.80;0.80;;;17.40;90.90;;;;;;5392778;26;20252;-72
2024/04/17 12:44:04;;;;;;;0.70;0.70;;;17.40;90.00;;;;;;5388905;26;20255;-72
2024/04/17 12:46:33;;;;;;;1.30;1.20;;;17.20;89.80;;;;;;5419334;26;20902;-72
2024/04/17 12:49:05;;;;;;;1.00;1.00;;;17.00;89.10;;;;;;5423957;26;20392;-72
2024/04/17 12:51:34;;;;;;;1.65;1.15;;;16.90;89.90;;;;;;5399814;26;20256;-72
2024/04/17 12:54:02;;;;;;;1.00;0.82;;;16.70;88.20;;;;;;5422389;26;20263;-73
2024/04/17 12:56:32;;;;;;;1.00;0.90;;;16.50;87.50;;;;;;5423261;26;20775;-72
2024/04/17 12:59:02;;;;;;;0.70;0.70;;;16.50;88.10;;;;;;5398931;26;20342;-72
2024/04/17 13:01:31;;;;;;;1.88;0.80;;;16.50;89.10;;;;;;5428983;26;20303;-72